createdAt,value
2023-08-12T00:03:12.869Z,100.00
2023-08-12T00:08:16.639Z,100.00
2023-08-12T00:13:21.895Z,100.00
2023-08-12T00:18:26.990Z,100.00
2023-08-12T00:23:31.063Z,100.00
2023-08-12T00:28:35.193Z,100.00
2023-08-12T00:33:40.262Z,100.00
2023-08-12T00:38:44.139Z,100.00
2023-08-12T00:43:47.893Z,100.00
2023-08-12T00:48:53.524Z,100.00
2023-08-12T00:54:00.376Z,100.00
2023-08-12T00:59:06.873Z,100.00
2023-08-12T01:04:12.368Z,100.00
2023-08-12T01:09:16.354Z,100.00
2023-08-12T01:14:27.335Z,100.00
2023-08-12T01:19:36.413Z,100.00
2023-08-12T01:24:42.814Z,100.00
2023-08-12T01:29:50.035Z,100.00
2023-08-12T01:35:03.079Z,100.00
2023-08-12T01:40:11.440Z,100.00
2023-08-12T01:45:15.233Z,100.00
2023-08-12T01:50:20.221Z,100.00
2023-08-12T01:55:25.365Z,100.00
2023-08-12T02:00:29.184Z,100.00
2023-08-12T02:05:32.955Z,100.00
2023-08-12T02:10:38.148Z,100.00
2023-08-12T02:15:41.894Z,100.00
2023-08-12T02:20:49.725Z,100.00
2023-08-12T02:25:55.828Z,100.00
2023-08-12T02:30:59.632Z,100.00
2023-08-12T02:36:03.393Z,100.00
2023-08-12T02:41:08.594Z,100.00
2023-08-12T02:46:12.504Z,100.00
2023-08-12T02:51:16.402Z,100.00
2023-08-12T02:56:21.558Z,100.00
2023-08-12T03:01:25.952Z,100.00
2023-08-12T03:06:29.808Z,100.00
2023-08-12T03:11:35.189Z,100.00
2023-08-12T03:16:39.720Z,100.00
2023-08-12T03:21:44.308Z,100.00
2023-08-12T03:26:50.277Z,100.00
2023-08-12T03:31:54.502Z,100.00
2023-08-12T03:36:59.503Z,100.00
2023-08-12T03:42:06.022Z,100.00
2023-08-12T03:47:10.075Z,100.00
2023-08-12T03:52:14.296Z,100.00
2023-08-12T03:57:19.517Z,100.00
2023-08-12T04:02:24.786Z,100.00
2023-08-12T04:07:28.745Z,100.00
2023-08-12T04:12:33.832Z,100.00
2023-08-12T04:17:37.677Z,100.00
2023-08-12T04:22:41.664Z,100.00
2023-08-12T04:27:48.347Z,100.00
2023-08-12T04:32:53.016Z,100.00
2023-08-12T04:37:59.015Z,100.00
2023-08-12T04:43:06.019Z,100.00
2023-08-12T04:48:11.889Z,100.00
2023-08-12T04:53:15.804Z,100.00
2023-08-12T04:58:21.009Z,100.00
2023-08-12T05:03:25.186Z,100.00
2023-08-12T05:08:29.565Z,100.00
2023-08-12T05:13:35.059Z,100.00
2023-08-12T05:18:39.412Z,100.00
2023-08-12T05:23:43.417Z,100.00
2023-08-12T05:28:48.537Z,100.00
2023-08-12T05:33:53.377Z,100.00
2023-08-12T05:38:57.256Z,100.00
2023-08-12T05:44:02.473Z,100.00
2023-08-12T05:49:06.325Z,100.00
2023-08-12T05:54:10.188Z,100.00
2023-08-12T05:59:15.273Z,100.00
2023-08-12T06:04:19.017Z,100.00
2023-08-12T06:09:23.408Z,100.00
2023-08-12T06:14:28.674Z,100.00
2023-08-12T06:19:32.450Z,100.00
2023-08-12T06:24:36.237Z,100.00
2023-08-12T06:29:41.362Z,100.00
2023-08-12T06:34:45.159Z,100.00
2023-08-12T06:39:48.916Z,100.00
2023-08-12T06:44:57.304Z,100.00
2023-08-12T06:50:01.196Z,100.00
2023-08-12T06:55:05.301Z,100.00
2023-08-12T07:00:11.679Z,100.00
2023-08-12T07:05:15.621Z,100.00
2023-08-12T07:10:21.570Z,100.00
2023-08-12T07:15:28.332Z,100.00
2023-08-12T07:20:32.144Z,100.00
2023-08-12T07:25:35.871Z,100.00
2023-08-12T07:30:40.943Z,100.00
2023-08-12T07:35:44.759Z,100.00
2023-08-12T07:40:48.616Z,100.00
2023-08-12T07:46:07.664Z,100.00
2023-08-12T07:51:12.989Z,100.00
2023-08-12T07:56:16.720Z,100.00
2023-08-12T08:01:21.811Z,100.00
2023-08-12T08:06:25.749Z,100.00
2023-08-12T08:11:29.463Z,100.00
2023-08-12T08:16:35.690Z,100.00
2023-08-12T08:21:39.647Z,100.00
2023-08-12T08:26:43.560Z,100.00
2023-08-12T08:31:48.718Z,100.00
2023-08-12T08:36:52.936Z,100.00
2023-08-12T08:41:57.029Z,100.00
2023-08-12T08:47:04.417Z,100.00
2023-08-12T08:52:08.230Z,100.00
2023-08-12T08:57:15.425Z,100.00
2023-08-12T09:02:23.311Z,100.00
2023-08-12T09:07:27.820Z,100.00
2023-08-12T09:12:33.512Z,100.00
2023-08-12T09:17:39.440Z,100.00
2023-08-12T09:22:43.885Z,100.00
2023-08-12T09:27:47.725Z,100.00
2023-08-12T09:33:03.954Z,100.00
2023-08-12T09:38:09.301Z,100.00
2023-08-12T09:43:13.759Z,100.00
2023-08-12T09:48:20.201Z,100.00
2023-08-12T09:53:24.519Z,100.00
2023-08-12T09:58:31.072Z,100.00
2023-08-12T10:03:36.967Z,100.00
2023-08-12T10:08:41.470Z,100.00
2023-08-12T10:13:45.477Z,100.00
2023-08-12T10:18:52.142Z,100.00
2023-08-12T10:23:56.268Z,100.00
2023-08-12T10:29:01.234Z,100.00
2023-08-12T10:34:06.666Z,100.00
2023-08-12T10:39:11.893Z,100.00
2023-08-12T10:44:15.845Z,100.00
2023-08-12T10:49:22.202Z,100.00
2023-08-12T10:54:30.340Z,100.00
2023-08-12T10:59:54.021Z,100.00
2023-08-12T11:05:03.192Z,100.00
2023-08-12T11:10:12.170Z,100.00
2023-08-12T11:15:16.076Z,100.00
2023-08-12T11:20:21.349Z,100.00
2023-08-12T11:25:25.107Z,100.00
2023-08-12T11:30:32.314Z,100.00
2023-08-12T11:35:39.499Z,100.00
2023-08-12T11:40:43.339Z,100.00
2023-08-12T11:45:47.086Z,100.00
2023-08-12T11:50:53.065Z,100.00
2023-08-12T11:55:56.972Z,100.00
2023-08-12T12:01:01.150Z,100.00
2023-08-12T12:06:06.378Z,100.00
2023-08-12T12:11:10.216Z,100.00
2023-08-12T12:16:13.965Z,100.00
2023-08-12T12:21:24.138Z,100.00
2023-08-12T12:26:28.095Z,100.00
2023-08-12T12:31:35.318Z,87.09
2023-08-12T12:36:40.464Z,86.04
2023-08-12T12:41:45.541Z,76.72
2023-08-12T12:46:50.531Z,60.55
2023-08-12T12:51:55.669Z,70.01
2023-08-12T12:56:59.409Z,73.93
2023-08-12T13:02:03.301Z,73.17
2023-08-12T13:07:08.502Z,76.16
2023-08-12T13:12:12.534Z,80.54
2023-08-12T13:17:16.459Z,74.07
2023-08-12T13:22:21.975Z,75.82
2023-08-12T13:27:25.740Z,64.13
2023-08-12T13:32:29.534Z,63.78
2023-08-12T13:37:35.009Z,62.20
2023-08-12T13:42:38.782Z,59.50
2023-08-12T13:47:42.643Z,59.15
2023-08-12T13:52:50.014Z,58.76
2023-08-12T13:57:54.456Z,57.36
2023-08-12T14:02:58.225Z,54.34
2023-08-12T14:08:03.641Z,55.89
2023-08-12T14:13:08.021Z,52.40
2023-08-12T14:18:12.068Z,51.09
2023-08-12T14:23:17.306Z,51.59
2023-08-12T14:28:21.163Z,51.97
2023-08-12T14:33:26.072Z,55.10
2023-08-12T14:38:32.530Z,52.89
2023-08-12T14:43:38.040Z,51.43
2023-08-12T14:48:42.030Z,51.04
2023-08-12T14:53:48.561Z,51.54
2023-08-12T14:58:52.386Z,56.96
2023-08-12T15:03:56.822Z,59.02
2023-08-12T15:09:02.116Z,58.17
2023-08-12T15:14:06.334Z,58.83
2023-08-12T15:19:10.156Z,64.25
2023-08-12T15:24:15.313Z,63.66
2023-08-12T15:29:19.168Z,62.42
2023-08-12T15:34:23.135Z,59.37
2023-08-12T15:39:28.338Z,56.48
2023-08-12T15:44:32.180Z,55.25
2023-08-12T15:49:36.003Z,51.76
2023-08-12T15:54:41.149Z,52.47
2023-08-12T15:59:47.487Z,50.58
2023-08-12T16:04:51.319Z,52.14
2023-08-12T16:09:56.438Z,52.31
2023-08-12T16:15:00.329Z,51.19
2023-08-12T16:20:04.797Z,51.11
2023-08-12T16:25:10.779Z,50.81
2023-08-12T16:30:32.870Z,53.06
2023-08-12T16:35:36.747Z,52.86
2023-08-12T16:40:41.908Z,53.78
2023-08-12T16:45:45.833Z,53.14
2023-08-12T16:50:49.724Z,53.88
2023-08-12T16:55:55.111Z,54.72
2023-08-12T17:00:59.535Z,53.60
2023-08-12T17:06:03.388Z,57.87
2023-08-12T17:11:09.189Z,59.23
2023-08-12T17:16:13.065Z,63.92
2023-08-12T17:21:17.105Z,66.72
2023-08-12T17:26:22.344Z,66.56
2023-08-12T17:31:26.162Z,66.02
2023-08-12T17:36:29.919Z,67.02
2023-08-12T17:41:35.068Z,66.38
2023-08-12T17:46:41.345Z,64.40
2023-08-12T17:51:45.160Z,65.37
2023-08-12T17:56:50.303Z,66.94
2023-08-12T18:01:54.134Z,66.21
2023-08-12T18:06:57.851Z,69.85
2023-08-12T18:12:03.027Z,74.57
2023-08-12T18:17:07.111Z,79.64
2023-08-12T18:22:11.253Z,77.14
2023-08-12T18:27:16.611Z,80.02
2023-08-12T18:32:20.523Z,81.27
2023-08-12T18:37:24.296Z,85.20
2023-08-12T18:42:29.416Z,85.56
2023-08-12T18:47:34.317Z,84.96
2023-08-12T18:52:39.606Z,84.59
2023-08-12T18:57:44.868Z,86.21
2023-08-12T19:02:48.796Z,85.73
2023-08-12T19:07:52.704Z,94.31
2023-08-12T19:12:57.827Z,96.47
2023-08-12T19:18:01.658Z,96.63
2023-08-12T19:23:05.958Z,98.26
2023-08-12T19:28:11.110Z,100.00
2023-08-12T19:33:14.886Z,100.00
2023-08-12T19:38:18.726Z,100.00
2023-08-12T19:43:23.888Z,100.00
2023-08-12T19:48:27.724Z,100.00
2023-08-12T19:53:31.468Z,100.00
2023-08-12T19:58:37.448Z,100.00
2023-08-12T20:03:41.219Z,100.00
2023-08-12T20:08:44.973Z,100.00
2023-08-12T20:13:50.127Z,100.00
2023-08-12T20:18:54.168Z,100.00
2023-08-12T20:23:58.012Z,100.00
2023-08-12T20:29:03.327Z,100.00
2023-08-12T20:34:07.366Z,100.00
2023-08-12T20:39:11.406Z,100.00
2023-08-12T20:44:16.660Z,100.00
2023-08-12T20:49:20.475Z,100.00
2023-08-12T20:54:26.527Z,100.00
2023-08-12T20:59:32.675Z,100.00
2023-08-12T21:04:36.594Z,100.00
2023-08-12T21:09:40.759Z,100.00
2023-08-12T21:14:45.921Z,100.00
2023-08-12T21:19:49.732Z,100.00
2023-08-12T21:24:53.645Z,100.00
2023-08-12T21:29:58.849Z,100.00
2023-08-12T21:35:02.826Z,100.00
2023-08-12T21:40:07.825Z,100.00
2023-08-12T21:45:14.127Z,100.00
2023-08-12T21:50:18.144Z,100.00
2023-08-12T21:55:22.034Z,100.00
2023-08-12T22:00:27.681Z,100.00
2023-08-12T22:05:31.864Z,100.00
2023-08-12T22:10:36.226Z,100.00
2023-08-12T22:15:43.824Z,100.00
2023-08-12T22:20:49.548Z,100.00
2023-08-12T22:25:53.450Z,100.00
2023-08-12T22:30:58.661Z,100.00
2023-08-12T22:36:02.477Z,100.00
2023-08-12T22:41:06.232Z,100.00
2023-08-12T22:46:11.428Z,100.00
2023-08-12T22:51:17.456Z,100.00
2023-08-12T22:56:21.388Z,100.00
2023-08-12T23:01:26.609Z,100.00
2023-08-12T23:06:30.407Z,100.00
2023-08-12T23:11:34.436Z,100.00
2023-08-12T23:16:39.707Z,100.00
2023-08-12T23:21:43.545Z,100.00
2023-08-12T23:26:47.284Z,100.00
2023-08-12T23:31:52.492Z,100.00
2023-08-12T23:36:56.293Z,100.00
2023-08-12T23:42:00.042Z,100.00
2023-08-12T23:47:05.363Z,100.00
2023-08-12T23:52:09.204Z,100.00
2023-08-12T23:57:15.262Z,100.00
